HTMWHSSJ

Guest
Details From HTMW - MWANZA
To HSSJ - JUBA
Flight Number -
Tags generated
Created
Modified
Stats Distance 447 nm / 828 km
Max Altitude 34,000 ft / 10,363 m
Waypoints 6
Social Downloads 0
Likes 0
Share VATSIM

Download

Looking for another format? Having issues loading an existing format? Contact us
Advertisement - Login to hide

Notes

Basic altitude profile: - Ascent Rate: 2500ft/min - Ascent Speed: 250kts - Cruise Altitude: 35000ft - Cruise Speed: 420kts - Descent Rate: 1500ft/min - Descent Speed: 250kts Options: - Use NATs: yes - Use PACOTS: yes - Use low airways: yes - Use high airways: yes

Route

HTMW APNAD UG656D TORNO G656D ATUGA HSSJ

ID Type Via Altitude Latitude Longitude Leg Dist Tot Dist Heading (true) Name
O HTMW APT - 0 ft / 0 m -2.44448˚ 32.93266˚ - 0 nm - MWANZA
APNAD FIX - 30,900 ft / 9,418 m -1.00267˚ 32.55595˚ 89 nm 89 nm 345° / 345° -
NN VOR UG656D (AWY-HI) 34,000 ft / 10,363 m 0.05300˚ 32.43800˚ 63 nm 153 nm 354° / 354° ENTEBBE VOR-DME
TORNO FIX UG656D (AWY-HI) 30,600 ft / 9,327 m 2.52927˚ 32.01627˚ 150 nm 304 nm 350° / 350° -
ATUGA FIX G656D (AWY-LO) 10,400 ft / 3,170 m 4.00000˚ 31.76500˚ 89 nm 393 nm 350° / 350° -
O HSSJ APT - 0 ft / 0 m 4.87201˚ 31.60112˚ 53 nm 447 nm 349° / 349° JUBA

Altitude Profile

Advertisement - Login to hide

Weather


0- 5 10 15 20 25 30 35+ Temperature / ° C

Clouds and Precipitation
Forecast for 2017-12-12 06:00 UTC. Updated an hour ago

Ground ~20,000 ft ~40,000 ft Winds

HTMW

Details ICAO HTMW (MWZ)
Name MWANZA
Region Tanzania
Timezone Africa/Dar_es_Salaam (UTC+3.0)
Stats Elevation 3,763 ft / 1,147 m (AMSL)
Location -2.444485° 32.932665°
Runways 1
Magnetic Variation 0.866° E

METAR

HTMW 120500Z 09010KT 9999 FEW018 FEW019CB BKN100 22/20 Q1017 NOSIG

Decode

TAF

HTMW 120500Z 1206/1306 10010KT 9999 FEW022 FEW023CB BKN100 BECMG 1207/1209 TS SCT023 FEW024CB BKN110 BECMG 1215/1217 27010KT NSW FEW024 FEW025CB BECMG 1220/1222 00000KT FEW020 FEW021CB SCT090

Decode

Departure Runways

ID Width Length Bearing (true) Bearing (mag) Surface Threshold Offset Overrun Length
12 148 ft / 45 m 10,223 ft / 3,116 m 116.54° 115.67° Asphalt 300 ft / 91 m 615 ft / 187 m
30 148 ft / 45 m 10,223 ft / 3,116 m 296.54° 295.67° Asphalt 0 ft / 0 m 0 ft / 0 m

HSSJ

Details ICAO HSSJ (JUB)
Name JUBA
Region Sudan and South Sudan
Timezone Africa/Khartoum (UTC+3.0)
Stats Elevation 1,513 ft / 461 m (AMSL)
Location 4.872009° 31.601115°
Runways 1
Magnetic Variation 2.395° E

METAR

Not found

TAF

TAF HSSJ 120530Z 1206/1312 12004KT 4000 HZ TEMPO 1211/1217 08004KT CAVOK

Decode

Destination Runways

ID Width Length Bearing (true) Bearing (mag) Surface Threshold Offset Overrun Length
13 148 ft / 45 m 7,891 ft / 2,405 m 130.41° 128.01° Asphalt 0 ft / 0 m 200 ft / 61 m
31 148 ft / 45 m 7,891 ft / 2,405 m 310.41° 308.01° Asphalt 0 ft / 0 m 200 ft / 61 m